sensor_id;sensor_type;location;lat;lon;timestamp;temperature;humidity
19039;DHT22;9652;49.014;12.052;2022-12-16T00:02:06;3.90;68.60
19039;DHT22;9652;49.014;12.052;2022-12-16T00:04:35;3.80;68.40
19039;DHT22;9652;49.014;12.052;2022-12-16T00:07:02;3.90;68.60
19039;DHT22;9652;49.014;12.052;2022-12-16T00:09:29;3.80;68.40
19039;DHT22;9652;49.014;12.052;2022-12-16T00:11:56;3.80;68.60
19039;DHT22;9652;49.014;12.052;2022-12-16T00:14:23;3.80;68.50
19039;DHT22;9652;49.014;12.052;2022-12-16T00:16:52;3.80;68.70
19039;DHT22;9652;49.014;12.052;2022-12-16T00:19:19;3.80;68.60
19039;DHT22;9652;49.014;12.052;2022-12-16T00:21:47;3.80;68.80
19039;DHT22;9652;49.014;12.052;2022-12-16T00:24:14;3.80;68.90
19039;DHT22;9652;49.014;12.052;2022-12-16T00:26:41;3.80;68.90
19039;DHT22;9652;49.014;12.052;2022-12-16T00:29:09;3.80;69.10
19039;DHT22;9652;49.014;12.052;2022-12-16T00:31:36;3.80;68.90
19039;DHT22;9652;49.014;12.052;2022-12-16T00:34:03;3.80;69.00
19039;DHT22;9652;49.014;12.052;2022-12-16T00:36:30;3.80;69.10
19039;DHT22;9652;49.014;12.052;2022-12-16T00:38:59;3.80;69.30
19039;DHT22;9652;49.014;12.052;2022-12-16T00:41:26;3.80;69.50
19039;DHT22;9652;49.014;12.052;2022-12-16T00:43:53;3.80;69.60
19039;DHT22;9652;49.014;12.052;2022-12-16T00:46:21;3.80;69.70
19039;DHT22;9652;49.014;12.052;2022-12-16T00:48:48;3.80;69.80
19039;DHT22;9652;49.014;12.052;2022-12-16T00:51:15;3.80;69.80
19039;DHT22;9652;49.014;12.052;2022-12-16T00:53:42;3.80;70.00
19039;DHT22;9652;49.014;12.052;2022-12-16T00:56:12;3.80;70.00
19039;DHT22;9652;49.014;12.052;2022-12-16T00:58:40;3.80;70.10
19039;DHT22;9652;49.014;12.052;2022-12-16T01:01:07;3.80;70.20
19039;DHT22;9652;49.014;12.052;2022-12-16T01:03:35;3.80;70.30
19039;DHT22;9652;49.014;12.052;2022-12-16T01:06:07;3.80;70.40
19039;DHT22;9652;49.014;12.052;2022-12-16T01:08:35;3.80;70.50
19039;DHT22;9652;49.014;12.052;2022-12-16T01:11:02;3.80;70.50
19039;DHT22;9652;49.014;12.052;2022-12-16T01:13:31;3.90;70.70
19039;DHT22;9652;49.014;12.052;2022-12-16T01:15:59;3.80;70.50
19039;DHT22;9652;49.014;12.052;2022-12-16T01:18:27;3.80;70.50
19039;DHT22;9652;49.014;12.052;2022-12-16T01:21:01;3.90;70.50
19039;DHT22;9652;49.014;12.052;2022-12-16T01:23:29;3.80;70.60
19039;DHT22;9652;49.014;12.052;2022-12-16T01:25:57;3.80;70.50
19039;DHT22;9652;49.014;12.052;2022-12-16T01:28:25;3.80;70.60
19039;DHT22;9652;49.014;12.052;2022-12-16T01:30:55;3.90;70.60
19039;DHT22;9652;49.014;12.052;2022-12-16T01:33:26;3.80;70.70
19039;DHT22;9652;49.014;12.052;2022-12-16T01:35:59;3.90;70.80
19039;DHT22;9652;49.014;12.052;2022-12-16T01:38:27;3.90;70.80
19039;DHT22;9652;49.014;12.052;2022-12-16T01:40:54;3.90;70.80
19039;DHT22;9652;49.014;12.052;2022-12-16T01:43:26;3.90;70.90
19039;DHT22;9652;49.014;12.052;2022-12-16T01:45:59;3.90;71.10
19039;DHT22;9652;49.014;12.052;2022-12-16T01:48:38;3.90;71.00
19039;DHT22;9652;49.014;12.052;2022-12-16T01:51:14;3.90;71.10
19039;DHT22;9652;49.014;12.052;2022-12-16T01:53:48;3.90;71.00
19039;DHT22;9652;49.014;12.052;2022-12-16T01:56:20;3.90;71.10
19039;DHT22;9652;49.014;12.052;2022-12-16T01:58:50;3.90;71.00
19039;DHT22;9652;49.014;12.052;2022-12-16T02:01:19;3.90;70.90
19039;DHT22;9652;49.014;12.052;2022-12-16T02:03:48;3.90;71.00
19039;DHT22;9652;49.014;12.052;2022-12-16T02:06:18;3.90;71.10
19039;DHT22;9652;49.014;12.052;2022-12-16T02:08:46;3.90;71.10
19039;DHT22;9652;49.014;12.052;2022-12-16T02:11:33;3.90;71.10
19039;DHT22;9652;49.014;12.052;2022-12-16T02:14:40;3.90;71.20
19039;DHT22;9652;49.014;12.052;2022-12-16T02:17:27;3.90;71.30
19039;DHT22;9652;49.014;12.052;2022-12-16T02:20:50;3.90;71.30
19039;DHT22;9652;49.014;12.052;2022-12-16T02:23:53;3.90;71.40
19039;DHT22;9652;49.014;12.052;2022-12-16T02:27:04;3.90;71.20
19039;DHT22;9652;49.014;12.052;2022-12-16T02:30:04;3.90;71.20
19039;DHT22;9652;49.014;12.052;2022-12-16T02:32:55;3.90;71.20
19039;DHT22;9652;49.014;12.052;2022-12-16T02:35:37;3.90;71.10
19039;DHT22;9652;49.014;12.052;2022-12-16T02:38:16;3.90;71.10
19039;DHT22;9652;49.014;12.052;2022-12-16T02:40:52;3.80;71.00
19039;DHT22;9652;49.014;12.052;2022-12-16T02:43:39;3.90;71.20
19039;DHT22;9652;49.014;12.052;2022-12-16T02:46:15;3.90;71.50
19039;DHT22;9652;49.014;12.052;2022-12-16T02:48:44;3.90;71.20
19039;DHT22;9652;49.014;12.052;2022-12-16T02:51:11;3.90;71.10
19039;DHT22;9652;49.014;12.052;2022-12-16T02:53:40;3.80;71.00
19039;DHT22;9652;49.014;12.052;2022-12-16T02:56:17;3.80;71.00
19039;DHT22;9652;49.014;12.052;2022-12-16T02:59:05;3.80;70.80
19039;DHT22;9652;49.014;12.052;2022-12-16T03:01:46;3.80;70.80
19039;DHT22;9652;49.014;12.052;2022-12-16T03:04:23;3.80;70.80
19039;DHT22;9652;49.014;12.052;2022-12-16T03:06:55;3.80;71.00
19039;DHT22;9652;49.014;12.052;2022-12-16T03:09:28;3.80;71.00
19039;DHT22;9652;49.014;12.052;2022-12-16T03:12:00;3.80;71.10
19039;DHT22;9652;49.014;12.052;2022-12-16T03:14:33;3.80;71.10
19039;DHT22;9652;49.014;12.052;2022-12-16T03:17:04;3.80;71.50
19039;DHT22;9652;49.014;12.052;2022-12-16T03:19:34;3.80;71.30
19039;DHT22;9652;49.014;12.052;2022-12-16T03:22:08;3.80;71.10
19039;DHT22;9652;49.014;12.052;2022-12-16T03:24:40;3.80;71.30
19039;DHT22;9652;49.014;12.052;2022-12-16T03:27:12;3.80;71.30
19039;DHT22;9652;49.014;12.052;2022-12-16T03:29:48;3.80;71.30
19039;DHT22;9652;49.014;12.052;2022-12-16T03:32:23;3.80;71.30
19039;DHT22;9652;49.014;12.052;2022-12-16T03:35:01;3.80;71.40
19039;DHT22;9652;49.014;12.052;2022-12-16T03:37:40;3.80;71.50
19039;DHT22;9652;49.014;12.052;2022-12-16T03:40:11;3.80;71.30
19039;DHT22;9652;49.014;12.052;2022-12-16T03:42:41;3.80;71.30
19039;DHT22;9652;49.014;12.052;2022-12-16T03:45:13;3.70;71.30
19039;DHT22;9652;49.014;12.052;2022-12-16T03:47:48;3.70;71.40
19039;DHT22;9652;49.014;12.052;2022-12-16T03:50:18;3.70;71.30
19039;DHT22;9652;49.014;12.052;2022-12-16T03:52:49;3.70;71.30
19039;DHT22;9652;49.014;12.052;2022-12-16T03:55:16;3.70;71.40
19039;DHT22;9652;49.014;12.052;2022-12-16T03:57:43;3.70;71.30
19039;DHT22;9652;49.014;12.052;2022-12-16T04:00:11;3.70;71.50
19039;DHT22;9652;49.014;12.052;2022-12-16T04:02:40;3.70;71.50
19039;DHT22;9652;49.014;12.052;2022-12-16T04:05:07;3.70;71.50
19039;DHT22;9652;49.014;12.052;2022-12-16T04:07:36;3.70;71.60
19039;DHT22;9652;49.014;12.052;2022-12-16T04:10:04;3.60;71.50
19039;DHT22;9652;49.014;12.052;2022-12-16T04:12:34;3.60;71.40
19039;DHT22;9652;49.014;12.052;2022-12-16T04:15:19;3.60;71.20
19039;DHT22;9652;49.014;12.052;2022-12-16T04:18:03;3.60;71.30
19039;DHT22;9652;49.014;12.052;2022-12-16T04:20:50;3.60;71.40
19039;DHT22;9652;49.014;12.052;2022-12-16T04:23:45;3.50;71.40
19039;DHT22;9652;49.014;12.052;2022-12-16T04:26:31;3.50;71.50
19039;DHT22;9652;49.014;12.052;2022-12-16T04:29:20;3.50;71.30
19039;DHT22;9652;49.014;12.052;2022-12-16T04:31:47;3.50;71.40
19039;DHT22;9652;49.014;12.052;2022-12-16T04:34:15;3.50;71.70
19039;DHT22;9652;49.014;12.052;2022-12-16T04:36:50;3.40;71.70
19039;DHT22;9652;49.014;12.052;2022-12-16T04:39:36;3.50;71.80
19039;DHT22;9652;49.014;12.052;2022-12-16T04:42:21;3.40;71.90
19039;DHT22;9652;49.014;12.052;2022-12-16T04:45:14;3.40;71.80
19039;DHT22;9652;49.014;12.052;2022-12-16T04:47:59;3.40;72.20
19039;DHT22;9652;49.014;12.052;2022-12-16T04:50:44;3.40;72.10
19039;DHT22;9652;49.014;12.052;2022-12-16T04:53:28;3.40;72.20
19039;DHT22;9652;49.014;12.052;2022-12-16T04:56:14;3.40;72.30
19039;DHT22;9652;49.014;12.052;2022-12-16T04:58:59;3.40;72.40
19039;DHT22;9652;49.014;12.052;2022-12-16T05:01:46;3.40;72.40
19039;DHT22;9652;49.014;12.052;2022-12-16T05:04:31;3.40;72.40
19039;DHT22;9652;49.014;12.052;2022-12-16T05:07:16;3.40;72.50
19039;DHT22;9652;49.014;12.052;2022-12-16T05:10:01;3.40;72.60
19039;DHT22;9652;49.014;12.052;2022-12-16T05:12:46;3.40;72.50
19039;DHT22;9652;49.014;12.052;2022-12-16T05:15:31;3.50;72.70
19039;DHT22;9652;49.014;12.052;2022-12-16T05:18:16;3.50;72.40
19039;DHT22;9652;49.014;12.052;2022-12-16T05:21:01;3.50;72.30
19039;DHT22;9652;49.014;12.052;2022-12-16T05:23:47;3.50;72.20
19039;DHT22;9652;49.014;12.052;2022-12-16T05:26:37;3.50;72.30
19039;DHT22;9652;49.014;12.052;2022-12-16T05:29:22;3.40;72.20
19039;DHT22;9652;49.014;12.052;2022-12-16T05:32:06;3.40;72.20
19039;DHT22;9652;49.014;12.052;2022-12-16T05:34:51;3.40;72.40
19039;DHT22;9652;49.014;12.052;2022-12-16T05:37:36;3.40;72.30
19039;DHT22;9652;49.014;12.052;2022-12-16T05:40:21;3.40;72.50
19039;DHT22;9652;49.014;12.052;2022-12-16T05:43:04;3.40;72.40
19039;DHT22;9652;49.014;12.052;2022-12-16T05:45:50;3.40;72.30
19039;DHT22;9652;49.014;12.052;2022-12-16T05:48:35;3.40;72.30
19039;DHT22;9652;49.014;12.052;2022-12-16T05:51:20;3.40;72.20
19039;DHT22;9652;49.014;12.052;2022-12-16T05:54:05;3.40;72.50
19039;DHT22;9652;49.014;12.052;2022-12-16T05:57:04;3.40;72.30
19039;DHT22;9652;49.014;12.052;2022-12-16T05:59:49;3.40;72.20
19039;DHT22;9652;49.014;12.052;2022-12-16T06:02:41;3.30;72.10
19039;DHT22;9652;49.014;12.052;2022-12-16T06:05:25;3.30;72.10
19039;DHT22;9652;49.014;12.052;2022-12-16T06:08:10;3.30;72.10
19039;DHT22;9652;49.014;12.052;2022-12-16T06:10:54;3.30;72.20
19039;DHT22;9652;49.014;12.052;2022-12-16T06:13:39;3.30;72.30
19039;DHT22;9652;49.014;12.052;2022-12-16T06:16:24;3.20;72.10
19039;DHT22;9652;49.014;12.052;2022-12-16T06:19:12;3.20;72.30
19039;DHT22;9652;49.014;12.052;2022-12-16T06:21:56;3.30;72.50
19039;DHT22;9652;49.014;12.052;2022-12-16T06:24:41;3.20;72.70
19039;DHT22;9652;49.014;12.052;2022-12-16T06:27:25;3.30;72.70
19039;DHT22;9652;49.014;12.052;2022-12-16T06:30:10;3.20;72.60
19039;DHT22;9652;49.014;12.052;2022-12-16T06:32:55;3.30;72.70
19039;DHT22;9652;49.014;12.052;2022-12-16T06:35:37;3.20;72.70
19039;DHT22;9652;49.014;12.052;2022-12-16T06:38:22;3.30;73.50
19039;DHT22;9652;49.014;12.052;2022-12-16T06:41:06;3.30;72.70
19039;DHT22;9652;49.014;12.052;2022-12-16T06:43:51;3.30;72.80
19039;DHT22;9652;49.014;12.052;2022-12-16T06:46:36;3.50;72.80
19039;DHT22;9652;49.014;12.052;2022-12-16T06:49:17;3.40;72.70
19039;DHT22;9652;49.014;12.052;2022-12-16T06:52:03;3.30;72.40
19039;DHT22;9652;49.014;12.052;2022-12-16T06:54:48;3.30;72.30
19039;DHT22;9652;49.014;12.052;2022-12-16T06:57:32;3.30;72.20
19039;DHT22;9652;49.014;12.052;2022-12-16T07:00:17;3.30;72.30
19039;DHT22;9652;49.014;12.052;2022-12-16T07:03:17;3.30;72.20
19039;DHT22;9652;49.014;12.052;2022-12-16T07:06:01;3.30;72.20
19039;DHT22;9652;49.014;12.052;2022-12-16T07:08:49;3.20;72.00
19039;DHT22;9652;49.014;12.052;2022-12-16T07:11:34;3.20;72.00
19039;DHT22;9652;49.014;12.052;2022-12-16T07:14:18;3.20;72.10
19039;DHT22;9652;49.014;12.052;2022-12-16T07:17:03;3.20;72.20
19039;DHT22;9652;49.014;12.052;2022-12-16T07:19:47;3.20;72.30
19039;DHT22;9652;49.014;12.052;2022-12-16T07:22:32;3.20;72.40
19039;DHT22;9652;49.014;12.052;2022-12-16T07:25:18;3.20;72.50
19039;DHT22;9652;49.014;12.052;2022-12-16T07:28:03;3.10;72.40
19039;DHT22;9652;49.014;12.052;2022-12-16T07:30:47;3.10;72.60
19039;DHT22;9652;49.014;12.052;2022-12-16T07:33:32;3.10;72.70
19039;DHT22;9652;49.014;12.052;2022-12-16T07:36:17;3.10;72.90
19039;DHT22;9652;49.014;12.052;2022-12-16T07:39:01;3.20;73.00
19039;DHT22;9652;49.014;12.052;2022-12-16T07:41:47;3.20;73.30
19039;DHT22;9652;49.014;12.052;2022-12-16T07:44:32;3.20;73.30
19039;DHT22;9652;49.014;12.052;2022-12-16T07:47:16;3.20;73.50
19039;DHT22;9652;49.014;12.052;2022-12-16T07:50:01;3.20;73.40
19039;DHT22;9652;49.014;12.052;2022-12-16T07:52:53;3.30;73.70
19039;DHT22;9652;49.014;12.052;2022-12-16T07:55:37;3.30;73.50
19039;DHT22;9652;49.014;12.052;2022-12-16T07:58:23;3.30;74.40
19039;DHT22;9652;49.014;12.052;2022-12-16T08:01:08;3.40;73.70
19039;DHT22;9652;49.014;12.052;2022-12-16T08:04:04;3.40;73.80
19039;DHT22;9652;49.014;12.052;2022-12-16T08:06:49;3.40;73.70
19039;DHT22;9652;49.014;12.052;2022-12-16T08:09:33;3.50;73.80
19039;DHT22;9652;49.014;12.052;2022-12-16T08:12:18;3.50;73.70
19039;DHT22;9652;49.014;12.052;2022-12-16T08:15:05;3.50;73.70
19039;DHT22;9652;49.014;12.052;2022-12-16T08:17:52;3.50;73.80
19039;DHT22;9652;49.014;12.052;2022-12-16T08:20:48;3.60;73.90
19039;DHT22;9652;49.014;12.052;2022-12-16T08:23:33;3.70;74.00
19039;DHT22;9652;49.014;12.052;2022-12-16T08:26:18;3.70;74.00
19039;DHT22;9652;49.014;12.052;2022-12-16T08:29:03;3.70;74.00
19039;DHT22;9652;49.014;12.052;2022-12-16T08:31:49;3.70;73.70
19039;DHT22;9652;49.014;12.052;2022-12-16T08:34:34;3.70;73.80
19039;DHT22;9652;49.014;12.052;2022-12-16T08:37:24;3.70;73.60
19039;DHT22;9652;49.014;12.052;2022-12-16T08:40:09;3.70;73.50
19039;DHT22;9652;49.014;12.052;2022-12-16T08:42:55;3.70;73.70
19039;DHT22;9652;49.014;12.052;2022-12-16T08:45:40;3.70;73.80
19039;DHT22;9652;49.014;12.052;2022-12-16T08:48:26;3.80;73.90
19039;DHT22;9652;49.014;12.052;2022-12-16T08:51:11;3.80;73.80
19039;DHT22;9652;49.014;12.052;2022-12-16T08:53:55;3.80;73.90
19039;DHT22;9652;49.014;12.052;2022-12-16T08:56:41;3.80;74.10
19039;DHT22;9652;49.014;12.052;2022-12-16T08:59:25;3.80;74.00
19039;DHT22;9652;49.014;12.052;2022-12-16T09:02:10;3.90;74.20
19039;DHT22;9652;49.014;12.052;2022-12-16T09:04:57;3.90;74.20
19039;DHT22;9652;49.014;12.052;2022-12-16T09:07:42;4.00;74.30
19039;DHT22;9652;49.014;12.052;2022-12-16T09:10:26;4.00;74.50
19039;DHT22;9652;49.014;12.052;2022-12-16T09:13:12;4.00;74.30
19039;DHT22;9652;49.014;12.052;2022-12-16T09:15:58;4.10;74.50
19039;DHT22;9652;49.014;12.052;2022-12-16T09:18:44;4.10;74.50
19039;DHT22;9652;49.014;12.052;2022-12-16T09:21:30;4.20;74.60
19039;DHT22;9652;49.014;12.052;2022-12-16T09:24:15;4.20;74.70
19039;DHT22;9652;49.014;12.052;2022-12-16T09:26:56;4.30;75.10
19039;DHT22;9652;49.014;12.052;2022-12-16T09:29:41;4.30;75.30
19039;DHT22;9652;49.014;12.052;2022-12-16T09:32:26;4.40;75.00
19039;DHT22;9652;49.014;12.052;2022-12-16T09:35:11;4.40;75.10
19039;DHT22;9652;49.014;12.052;2022-12-16T09:37:57;4.50;75.30
19039;DHT22;9652;49.014;12.052;2022-12-16T09:40:44;4.50;75.20
19039;DHT22;9652;49.014;12.052;2022-12-16T09:43:49;4.50;75.20
19039;DHT22;9652;49.014;12.052;2022-12-16T09:46:47;4.50;75.60
19039;DHT22;9652;49.014;12.052;2022-12-16T09:49:44;4.60;75.30
19039;DHT22;9652;49.014;12.052;2022-12-16T09:52:34;4.60;75.50
19039;DHT22;9652;49.014;12.052;2022-12-16T09:55:27;4.70;75.40
19039;DHT22;9652;49.014;12.052;2022-12-16T09:58:16;4.60;75.50
19039;DHT22;9652;49.014;12.052;2022-12-16T10:01:04;4.60;75.50
19039;DHT22;9652;49.014;12.052;2022-12-16T10:03:49;4.70;75.60
19039;DHT22;9652;49.014;12.052;2022-12-16T10:06:40;4.70;75.60
19039;DHT22;9652;49.014;12.052;2022-12-16T10:09:31;4.70;75.80
19039;DHT22;9652;49.014;12.052;2022-12-16T10:12:33;4.70;75.70
19039;DHT22;9652;49.014;12.052;2022-12-16T10:15:30;4.70;75.80
19039;DHT22;9652;49.014;12.052;2022-12-16T10:18:31;4.80;76.00
19039;DHT22;9652;49.014;12.052;2022-12-16T10:21:29;4.70;75.70
19039;DHT22;9652;49.014;12.052;2022-12-16T10:24:29;4.80;75.90
19039;DHT22;9652;49.014;12.052;2022-12-16T10:27:23;4.80;76.10
19039;DHT22;9652;49.014;12.052;2022-12-16T10:30:20;4.70;75.90
19039;DHT22;9652;49.014;12.052;2022-12-16T10:33:08;4.70;75.80
19039;DHT22;9652;49.014;12.052;2022-12-16T10:35:57;4.70;76.00
19039;DHT22;9652;49.014;12.052;2022-12-16T10:38:44;4.70;75.50
19039;DHT22;9652;49.014;12.052;2022-12-16T10:41:35;4.70;75.80
19039;DHT22;9652;49.014;12.052;2022-12-16T10:44:25;4.60;75.50
19039;DHT22;9652;49.014;12.052;2022-12-16T10:47:15;4.60;75.80
19039;DHT22;9652;49.014;12.052;2022-12-16T10:49:59;4.60;76.10
19039;DHT22;9652;49.014;12.052;2022-12-16T10:52:50;4.60;75.60
19039;DHT22;9652;49.014;12.052;2022-12-16T10:55:51;4.50;75.60
19039;DHT22;9652;49.014;12.052;2022-12-16T10:58:56;4.50;76.00
19039;DHT22;9652;49.014;12.052;2022-12-16T11:01:55;4.50;75.90
19039;DHT22;9652;49.014;12.052;2022-12-16T11:04:41;4.50;76.10
19039;DHT22;9652;49.014;12.052;2022-12-16T11:07:30;4.60;76.10
19039;DHT22;9652;49.014;12.052;2022-12-16T11:10:25;4.60;76.10
19039;DHT22;9652;49.014;12.052;2022-12-16T11:13:18;4.60;76.30
19039;DHT22;9652;49.014;12.052;2022-12-16T11:16:14;4.60;76.30
19039;DHT22;9652;49.014;12.052;2022-12-16T11:19:02;4.60;76.30
19039;DHT22;9652;49.014;12.052;2022-12-16T11:21:48;4.60;76.30
19039;DHT22;9652;49.014;12.052;2022-12-16T11:24:33;4.70;76.20
19039;DHT22;9652;49.014;12.052;2022-12-16T11:27:22;4.70;76.30
19039;DHT22;9652;49.014;12.052;2022-12-16T11:30:18;4.70;76.50
19039;DHT22;9652;49.014;12.052;2022-12-16T11:33:11;4.70;76.60
19039;DHT22;9652;49.014;12.052;2022-12-16T11:36:11;4.70;76.30
19039;DHT22;9652;49.014;12.052;2022-12-16T11:39:03;4.70;76.30
19039;DHT22;9652;49.014;12.052;2022-12-16T11:41:52;4.80;76.60
19039;DHT22;9652;49.014;12.052;2022-12-16T11:44:40;4.70;76.60
19039;DHT22;9652;49.014;12.052;2022-12-16T11:47:35;4.80;76.90
19039;DHT22;9652;49.014;12.052;2022-12-16T11:50:25;4.80;76.70
19039;DHT22;9652;49.014;12.052;2022-12-16T11:53:25;4.80;76.90
19039;DHT22;9652;49.014;12.052;2022-12-16T11:56:19;4.80;77.30
19039;DHT22;9652;49.014;12.052;2022-12-16T11:59:14;4.80;77.20
19039;DHT22;9652;49.014;12.052;2022-12-16T12:02:11;4.80;77.30
19039;DHT22;9652;49.014;12.052;2022-12-16T12:05:00;4.80;77.50
19039;DHT22;9652;49.014;12.052;2022-12-16T12:07:52;4.90;77.50
19039;DHT22;9652;49.014;12.052;2022-12-16T12:10:51;4.90;77.80
19039;DHT22;9652;49.014;12.052;2022-12-16T12:13:53;4.90;77.60
19039;DHT22;9652;49.014;12.052;2022-12-16T12:16:56;4.90;77.20
19039;DHT22;9652;49.014;12.052;2022-12-16T12:19:56;4.90;77.20
19039;DHT22;9652;49.014;12.052;2022-12-16T12:22:51;4.90;77.30
19039;DHT22;9652;49.014;12.052;2022-12-16T12:25:46;4.80;77.40
19039;DHT22;9652;49.014;12.052;2022-12-16T12:28:47;4.90;77.70
19039;DHT22;9652;49.014;12.052;2022-12-16T12:31:42;4.90;77.80
19039;DHT22;9652;49.014;12.052;2022-12-16T12:34:40;4.90;77.70
19039;DHT22;9652;49.014;12.052;2022-12-16T12:37:35;4.90;77.70
19039;DHT22;9652;49.014;12.052;2022-12-16T12:40:37;4.90;77.70
19039;DHT22;9652;49.014;12.052;2022-12-16T12:43:37;4.90;77.60
19039;DHT22;9652;49.014;12.052;2022-12-16T12:46:33;4.90;78.60
19039;DHT22;9652;49.014;12.052;2022-12-16T12:49:30;4.80;77.90
19039;DHT22;9652;49.014;12.052;2022-12-16T12:52:33;4.80;78.10
19039;DHT22;9652;49.014;12.052;2022-12-16T12:55:34;4.80;78.10
19039;DHT22;9652;49.014;12.052;2022-12-16T12:58:26;4.90;77.90
19039;DHT22;9652;49.014;12.052;2022-12-16T13:01:17;4.80;77.90
19039;DHT22;9652;49.014;12.052;2022-12-16T13:04:12;4.80;78.00
19039;DHT22;9652;49.014;12.052;2022-12-16T13:07:00;4.80;78.10
19039;DHT22;9652;49.014;12.052;2022-12-16T13:10:14;4.80;78.10
19039;DHT22;9652;49.014;12.052;2022-12-16T13:13:35;4.80;78.20
19039;DHT22;9652;49.014;12.052;2022-12-16T13:16:54;4.80;78.30
19039;DHT22;9652;49.014;12.052;2022-12-16T13:19:42;4.80;78.10
19039;DHT22;9652;49.014;12.052;2022-12-16T13:22:36;4.80;77.90
19039;DHT22;9652;49.014;12.052;2022-12-16T13:25:38;4.80;77.70
19039;DHT22;9652;49.014;12.052;2022-12-16T13:28:31;4.80;77.90
19039;DHT22;9652;49.014;12.052;2022-12-16T13:31:17;4.70;78.00
19039;DHT22;9652;49.014;12.052;2022-12-16T13:34:05;4.70;78.20
19039;DHT22;9652;49.014;12.052;2022-12-16T13:37:05;4.70;78.20
19039;DHT22;9652;49.014;12.052;2022-12-16T13:40:01;4.80;78.30
19039;DHT22;9652;49.014;12.052;2022-12-16T13:42:52;4.80;78.40
19039;DHT22;9652;49.014;12.052;2022-12-16T13:45:40;4.80;78.10
19039;DHT22;9652;49.014;12.052;2022-12-16T13:48:38;4.80;78.10
19039;DHT22;9652;49.014;12.052;2022-12-16T13:51:55;4.80;78.10
19039;DHT22;9652;49.014;12.052;2022-12-16T13:54:48;4.80;78.10
19039;DHT22;9652;49.014;12.052;2022-12-16T13:57:44;4.80;78.10
19039;DHT22;9652;49.014;12.052;2022-12-16T14:00:35;4.80;78.00
19039;DHT22;9652;49.014;12.052;2022-12-16T14:03:37;4.80;78.00
19039;DHT22;9652;49.014;12.052;2022-12-16T14:06:26;4.80;78.00
19039;DHT22;9652;49.014;12.052;2022-12-16T14:09:23;4.80;77.80
19039;DHT22;9652;49.014;12.052;2022-12-16T14:12:19;4.80;77.70
19039;DHT22;9652;49.014;12.052;2022-12-16T14:15:23;4.80;77.60
19039;DHT22;9652;49.014;12.052;2022-12-16T14:18:23;4.70;77.30
19039;DHT22;9652;49.014;12.052;2022-12-16T14:21:18;4.70;77.30
19039;DHT22;9652;49.014;12.052;2022-12-16T14:24:16;4.70;77.30
19039;DHT22;9652;49.014;12.052;2022-12-16T14:27:12;4.70;77.30
19039;DHT22;9652;49.014;12.052;2022-12-16T14:29:58;4.60;77.40
19039;DHT22;9652;49.014;12.052;2022-12-16T14:32:45;4.60;77.50
19039;DHT22;9652;49.014;12.052;2022-12-16T14:35:31;4.60;77.40
19039;DHT22;9652;49.014;12.052;2022-12-16T14:38:21;4.60;77.50
19039;DHT22;9652;49.014;12.052;2022-12-16T14:41:22;4.60;77.40
19039;DHT22;9652;49.014;12.052;2022-12-16T14:44:16;4.60;77.40
19039;DHT22;9652;49.014;12.052;2022-12-16T14:47:02;4.60;77.50
19039;DHT22;9652;49.014;12.052;2022-12-16T14:49:49;4.60;77.50
19039;DHT22;9652;49.014;12.052;2022-12-16T14:52:38;4.60;77.50
19039;DHT22;9652;49.014;12.052;2022-12-16T14:55:27;4.60;77.20
19039;DHT22;9652;49.014;12.052;2022-12-16T14:58:14;4.60;77.20
19039;DHT22;9652;49.014;12.052;2022-12-16T15:01:02;4.60;77.00
19039;DHT22;9652;49.014;12.052;2022-12-16T15:04:05;4.60;76.90
19039;DHT22;9652;49.014;12.052;2022-12-16T15:07:01;4.60;77.00
19039;DHT22;9652;49.014;12.052;2022-12-16T15:09:50;4.60;76.90
19039;DHT22;9652;49.014;12.052;2022-12-16T15:12:39;4.60;76.80
19039;DHT22;9652;49.014;12.052;2022-12-16T15:15:31;4.50;76.80
19039;DHT22;9652;49.014;12.052;2022-12-16T15:18:21;4.50;76.80
19039;DHT22;9652;49.014;12.052;2022-12-16T15:21:09;4.50;76.90
19039;DHT22;9652;49.014;12.052;2022-12-16T15:23:54;4.50;76.80
19039;DHT22;9652;49.014;12.052;2022-12-16T15:26:40;4.50;76.80
19039;DHT22;9652;49.014;12.052;2022-12-16T15:29:27;4.50;76.70
19039;DHT22;9652;49.014;12.052;2022-12-16T15:32:34;4.50;76.80
19039;DHT22;9652;49.014;12.052;2022-12-16T15:35:30;4.50;76.70
19039;DHT22;9652;49.014;12.052;2022-12-16T15:38:21;4.60;76.90
19039;DHT22;9652;49.014;12.052;2022-12-16T15:41:20;4.60;76.80
19039;DHT22;9652;49.014;12.052;2022-12-16T15:44:16;4.60;76.60
19039;DHT22;9652;49.014;12.052;2022-12-16T15:47:03;4.60;76.60
19039;DHT22;9652;49.014;12.052;2022-12-16T15:49:49;4.60;76.60
19039;DHT22;9652;49.014;12.052;2022-12-16T15:52:43;4.60;76.50
19039;DHT22;9652;49.014;12.052;2022-12-16T15:55:34;4.60;76.40
19039;DHT22;9652;49.014;12.052;2022-12-16T15:58:23;4.60;76.20
19039;DHT22;9652;49.014;12.052;2022-12-16T16:01:12;4.60;76.30
19039;DHT22;9652;49.014;12.052;2022-12-16T16:03:59;4.60;76.30
19039;DHT22;9652;49.014;12.052;2022-12-16T16:06:58;4.60;76.30
19039;DHT22;9652;49.014;12.052;2022-12-16T16:09:43;4.60;76.10
19039;DHT22;9652;49.014;12.052;2022-12-16T16:12:28;4.60;76.10
19039;DHT22;9652;49.014;12.052;2022-12-16T16:15:15;4.60;76.00
19039;DHT22;9652;49.014;12.052;2022-12-16T16:18:03;4.60;75.80
19039;DHT22;9652;49.014;12.052;2022-12-16T16:20:50;4.60;75.80
19039;DHT22;9652;49.014;12.052;2022-12-16T16:23:35;4.60;75.80
19039;DHT22;9652;49.014;12.052;2022-12-16T16:26:21;4.60;75.80
19039;DHT22;9652;49.014;12.052;2022-12-16T16:29:10;4.60;75.80
19039;DHT22;9652;49.014;12.052;2022-12-16T16:31:55;4.60;75.80
19039;DHT22;9652;49.014;12.052;2022-12-16T16:34:41;4.60;75.70
19039;DHT22;9652;49.014;12.052;2022-12-16T16:37:25;4.50;75.60
19039;DHT22;9652;49.014;12.052;2022-12-16T16:40:15;4.60;75.60
19039;DHT22;9652;49.014;12.052;2022-12-16T16:43:02;4.60;75.60
19039;DHT22;9652;49.014;12.052;2022-12-16T16:45:52;4.60;75.60
19039;DHT22;9652;49.014;12.052;2022-12-16T16:48:38;4.60;75.50
19039;DHT22;9652;49.014;12.052;2022-12-16T16:51:25;4.60;76.20
19039;DHT22;9652;49.014;12.052;2022-12-16T16:54:09;4.60;75.30
19039;DHT22;9652;49.014;12.052;2022-12-16T16:56:54;4.60;75.20
19039;DHT22;9652;49.014;12.052;2022-12-16T16:59:39;4.60;75.10
19039;DHT22;9652;49.014;12.052;2022-12-16T17:02:24;4.60;75.00
19039;DHT22;9652;49.014;12.052;2022-12-16T17:05:10;4.60;75.00
19039;DHT22;9652;49.014;12.052;2022-12-16T17:07:57;4.60;75.00
19039;DHT22;9652;49.014;12.052;2022-12-16T17:10:42;4.60;75.00
19039;DHT22;9652;49.014;12.052;2022-12-16T17:13:27;4.60;75.00
19039;DHT22;9652;49.014;12.052;2022-12-16T17:16:13;4.60;74.90
19039;DHT22;9652;49.014;12.052;2022-12-16T17:18:58;4.60;74.80
19039;DHT22;9652;49.014;12.052;2022-12-16T17:21:43;4.60;74.80
19039;DHT22;9652;49.014;12.052;2022-12-16T17:24:28;4.60;74.60
19039;DHT22;9652;49.014;12.052;2022-12-16T17:27:15;4.60;74.60
19039;DHT22;9652;49.014;12.052;2022-12-16T17:30:01;4.60;74.50
19039;DHT22;9652;49.014;12.052;2022-12-16T17:32:47;4.60;74.30
19039;DHT22;9652;49.014;12.052;2022-12-16T17:35:32;4.60;74.30
19039;DHT22;9652;49.014;12.052;2022-12-16T17:38:20;4.60;74.30
19039;DHT22;9652;49.014;12.052;2022-12-16T17:41:17;4.60;74.20